Time;durP1;ratioP1;P1;durP2;ratioP2;P2;SDS_P1;SDS_P2;PMS_P1;PMS_P2;Temp;Humidity;BMP_temperature;BMP_pressure;BME280_temperature;BME280_humidity;BME280_pressure;Samples;Min_cycle;Max_cycle;Signal;HPM_P1;HPM_P2
2021/12/21 00:01:01;;;;;;;2.83;1.55;;;;;;;-0.43;70.76;99787.63;5299507;27;34137;-72
2021/12/21 00:03:29;;;;;;;4.15;2.50;;;;;;;-0.34;70.72;99793.09;5299633;27;33563;-75
2021/12/21 00:05:57;;;;;;;3.42;1.83;;;;;;;-0.35;70.59;99788.81;5299999;27;33913;-75
2021/12/21 00:08:25;;;;;;;3.22;1.70;;;;;;;-0.64;70.50;99791.03;5299514;27;35027;-74
2021/12/21 00:11:14;;;;;;;1.27;1.17;;;;;;;-0.41;70.46;99786.00;5300057;27;34490;-75
2021/12/21 00:13:57;;;;;;;2.30;1.58;;;;;;;0.08;68.58;99785.38;5297717;27;34474;-74
2021/12/21 00:24:54;;;;;;;2.53;1.85;;;;;;;-0.29;69.53;99798.41;5270276;27;32607;-74
2021/12/21 00:27:22;;;;;;;3.92;1.80;;;;;;;-0.67;70.47;99796.06;5298331;27;33996;-76
2021/12/21 00:29:50;;;;;;;1.92;1.73;;;;;;;-0.94;71.70;99798.31;5299233;27;36046;-72
2021/12/21 00:32:18;;;;;;;1.30;1.20;;;;;;;-0.48;70.36;99796.78;5299939;27;34673;-75
2021/12/21 00:34:46;;;;;;;4.28;2.28;;;;;;;-0.42;70.28;99797.06;5299149;27;33497;-74
2021/12/21 00:37:14;;;;;;;2.80;1.48;;;;;;;-0.44;69.89;99802.09;5280515;27;34022;-75
2021/12/21 00:39:42;;;;;;;1.95;1.73;;;;;;;-0.83;71.47;99794.53;5299114;27;35138;-68
2021/12/21 00:42:10;;;;;;;1.65;1.55;;;;;;;-0.69;70.74;99810.47;5299885;27;35372;-72
2021/12/21 00:44:38;;;;;;;2.62;2.00;;;;;;;-0.39;70.03;99810.84;5299612;27;33440;-75
2021/12/21 00:47:06;;;;;;;2.78;1.98;;;;;;;-0.80;71.07;99819.34;5299901;27;34755;-75
2021/12/21 00:49:36;;;;;;;6.70;1.77;;;;;;;-1.16;72.39;99820.38;5279850;27;35948;-74
2021/12/21 00:52:04;;;;;;;1.70;1.60;;;;;;;-0.72;70.60;99817.09;5281420;27;34358;-75
2021/12/21 00:54:32;;;;;;;3.03;1.60;;;;;;;-0.80;70.91;99824.47;5299297;27;33575;-68
2021/12/21 00:57:04;;;;;;;2.17;1.87;;;;;;;-0.57;69.91;99816.06;5300071;27;33952;-70
2021/12/21 00:59:32;;;;;;;3.40;2.03;;;;;;;-0.72;70.49;99823.09;5299520;27;35056;-68
2021/12/21 01:02:01;;;;;;;3.22;2.03;;;;;;;-1.00;71.31;99832.16;5300167;27;35120;-68
2021/12/21 01:04:35;;;;;;;1.70;1.50;;;;;;;-0.66;70.62;99831.03;5299564;27;34308;-75
2021/12/21 01:07:18;;;;;;;3.12;2.00;;;;;;;-0.79;71.11;99837.31;5300073;27;33980;-75
2021/12/21 01:12:31;;;;;;;4.55;2.08;;;;;;;-0.71;70.38;99832.50;5299948;27;34604;-68
2021/12/21 01:16:00;;;;;;;3.15;1.90;;;;;;;-0.77;70.54;99824.59;5299581;27;33371;-75
2021/12/21 01:18:02;;;;;;;2.62;1.65;;;;;;;-0.97;70.77;99834.84;5288950;27;33887;-73
2021/12/21 01:23:28;;;;;;;2.25;1.75;;;;;;;-0.77;69.75;99842.50;5300307;27;35308;-74
2021/12/21 01:26:15;;;;;;;3.08;1.75;;;;;;;-0.43;68.58;99846.47;5299066;27;33368;-72
2021/12/21 01:31:39;;;;;;;3.97;2.50;;;;;;;-0.94;70.23;99856.22;5299845;27;35968;-75
2021/12/21 01:34:28;;;;;;;2.87;1.90;;;;;;;-0.45;68.19;99863.44;5299346;27;35131;-74
2021/12/21 01:37:03;;;;;;;3.15;2.20;;;;;;;-0.78;69.25;99868.84;5299387;27;33675;-73
2021/12/21 01:42:49;;;;;;;3.62;2.25;;;;;;;-1.03;70.04;99862.69;5299800;27;34941;-74
2021/12/21 01:50:56;;;;;;;;;;;;;;;-1.07;70.72;99855.69;5298939;27;34539;-73
2021/12/21 01:53:24;;;;;;;3.22;2.00;;;;;;;-1.26;70.94;99853.12;5299329;27;35311;-73
2021/12/21 01:55:52;;;;;;;3.35;2.17;;;;;;;-0.88;70.10;99856.47;5299640;27;34505;-68
2021/12/21 01:58:21;;;;;;;1.98;1.50;;;;;;;-1.40;71.31;99849.94;5299509;27;34498;-73
2021/12/21 02:00:49;;;;;;;3.45;2.00;;;;;;;-1.34;71.67;99858.78;5299586;27;34765;-74
2021/12/21 02:03:18;;;;;;;6.20;2.33;;;;;;;-1.20;71.31;99848.28;5300057;27;36021;-75
2021/12/21 02:05:46;;;;;;;3.85;2.08;;;;;;;-1.16;70.79;99851.03;5300216;27;34512;-74
2021/12/21 02:08:15;;;;;;;2.97;2.12;;;;;;;-1.22;70.61;99849.91;5299677;27;34267;-72
2021/12/21 02:10:43;;;;;;;5.80;2.95;;;;;;;-1.17;70.99;99853.53;5300027;27;33870;-68
2021/12/21 02:13:11;;;;;;;2.67;1.70;;;;;;;-1.30;70.99;99853.81;5300711;27;34976;-74
2021/12/21 02:15:39;;;;;;;7.10;1.90;;;;;;;-0.82;69.48;99854.19;5300174;27;34514;-74
2021/12/21 02:21:21;;;;;;;3.05;1.87;;;;;;;-1.19;69.43;99858.56;5300416;27;34800;-74
2021/12/21 02:23:46;;;;;;;4.10;2.00;;;;;;;-1.03;69.60;99867.78;5300007;27;35793;-74
2021/12/21 02:29:16;;;;;;;4.90;2.50;;;;;;;-0.93;68.53;99858.84;5300508;27;33593;-74
2021/12/21 02:31:50;;;;;;;4.55;2.03;;;;;;;-1.28;68.64;99862.41;5283579;27;33819;-71
2021/12/21 02:34:19;;;;;;;4.25;2.65;;;;;;;-1.07;68.38;99865.06;5299084;27;35905;-75
2021/12/21 02:36:49;;;;;;;2.05;1.73;;;;;;;-0.98;67.79;99861.19;5300693;27;34726;-75
2021/12/21 02:39:17;;;;;;;2.30;1.65;;;;;;;-1.07;68.24;99868.47;5299821;27;33120;-74
2021/12/21 02:41:45;;;;;;;1.17;1.17;;;;;;;-1.13;67.62;99870.72;5298709;27;34832;-68
2021/12/21 02:44:14;;;;;;;2.10;1.67;;;;;;;-0.91;67.01;99870.03;5299935;27;35331;-68
2021/12/21 02:46:43;;;;;;;2.70;1.87;;;;;;;-1.12;67.02;99882.72;5300595;27;34412;-71
2021/12/21 02:49:12;;;;;;;2.65;1.85;;;;;;;-1.33;67.49;99874.97;5300131;27;33715;-74
2021/12/21 02:51:42;;;;;;;2.58;2.03;;;;;;;-1.19;66.85;99873.03;5300535;27;34006;-75
2021/12/21 02:54:11;;;;;;;2.42;1.52;;;;;;;-1.36;67.41;99885.03;5299588;27;34927;-75
2021/12/21 02:56:39;;;;;;;2.50;1.65;;;;;;;-1.38;66.97;99882.44;5300065;27;34524;-74
2021/12/21 02:59:07;;;;;;;2.62;1.80;;;;;;;-1.57;67.35;99888.38;5300263;27;33493;-74
2021/12/21 03:01:36;;;;;;;4.12;1.80;;;;;;;-1.44;66.63;99886.37;5300198;27;34490;-74
2021/12/21 03:04:07;;;;;;;1.55;1.45;;;;;;;-1.54;66.87;99890.19;5298537;27;35926;-75
2021/12/21 03:12:27;;;;;;;2.12;1.70;;;;;;;-1.34;65.66;99894.53;5300290;27;34082;-75
2021/12/21 03:14:40;;;;;;;6.10;2.22;;;;;;;-1.29;65.50;99904.06;5299397;27;34774;-75
2021/12/21 03:17:09;;;;;;;2.53;1.75;;;;;;;-1.25;64.96;99901.75;5300604;27;34467;-74
2021/12/21 03:19:37;;;;;;;3.33;2.10;;;;;;;-1.12;64.77;99913.38;5299781;27;33472;-69
2021/12/21 03:22:06;;;;;;;2.45;1.73;;;;;;;-1.48;64.98;99900.69;5300516;27;33908;-74
2021/12/21 03:24:34;;;;;;;3.05;2.58;;;;;;;-1.31;64.91;99910.81;5299825;27;35081;-69
2021/12/21 03:27:03;;;;;;;2.25;1.52;;;;;;;-1.14;63.54;99907.34;5300399;27;34624;-69
2021/12/21 03:29:32;;;;;;;2.83;1.40;;;;;;;-0.67;62.70;99898.34;5299726;27;34248;-71
2021/12/21 03:32:01;;;;;;;3.17;1.40;;;;;;;-0.53;62.13;99905.72;5299691;27;34063;-75
2021/12/21 03:34:29;;;;;;;2.87;1.65;;;;;;;-1.13;63.30;99903.97;5299707;27;35013;-74
2021/12/21 03:36:57;;;;;;;1.40;1.30;;;;;;;-0.89;62.60;99896.50;5300273;27;35392;-74
2021/12/21 03:39:25;;;;;;;3.42;1.60;;;;;;;-1.06;63.01;99907.66;5299840;27;34505;-74
2021/12/21 03:41:58;;;;;;;2.55;1.65;;;;;;;-1.28;63.75;99911.81;5300189;27;34750;-69
2021/12/21 03:44:27;;;;;;;4.70;1.80;;;;;;;-1.13;63.31;99921.84;5300003;27;35890;-74
2021/12/21 03:46:56;;;;;;;1.30;1.20;;;;;;;-1.29;63.07;99921.97;5300527;27;35256;-74
2021/12/21 03:52:03;;;;;;;2.42;1.70;;;;;;;-0.79;61.82;99933.59;5300418;27;33944;-74
2021/12/21 03:54:31;;;;;;;3.45;1.70;;;;;;;-1.00;61.90;99936.06;5299474;27;35046;-75
2021/12/21 03:57:01;;;;;;;5.00;1.85;;;;;;;-1.37;62.84;99932.69;5300296;27;35115;-73
2021/12/21 03:59:29;;;;;;;3.58;2.00;;;;;;;-1.22;62.15;99937.66;5299676;27;33490;-74
2021/12/21 04:01:57;;;;;;;3.15;1.50;;;;;;;-1.29;61.99;99929.62;5300409;27;33909;-73
2021/12/21 04:04:26;;;;;;;2.65;1.55;;;;;;;-0.79;60.75;99939.59;5299674;27;34963;-74
2021/12/21 04:06:54;;;;;;;2.37;1.60;;;;;;;-0.91;60.77;99939.03;5300177;27;34422;-67
2021/12/21 04:09:22;;;;;;;2.65;1.45;;;;;;;-0.83;60.13;99937.72;5299106;27;33442;-75
2021/12/21 04:11:50;;;;;;;1.87;1.37;;;;;;;-1.15;61.39;99944.81;5300251;27;33846;-74
2021/12/21 04:14:19;;;;;;;4.50;1.40;;;;;;;-1.26;61.95;99940.00;5299649;27;35882;-68
2021/12/21 04:16:48;;;;;;;2.55;1.70;;;;;;;-1.25;61.48;99942.63;5300341;27;34501;-74
2021/12/21 04:19:18;;;;;;;1.40;1.30;;;;;;;-1.23;61.18;99938.47;5299993;27;34420;-74
2021/12/21 04:21:46;;;;;;;2.25;1.33;;;;;;;-1.53;62.13;99940.47;5300283;27;33682;-73
2021/12/21 04:24:14;;;;;;;1.83;1.52;;;;;;;-1.10;61.12;99942.44;5298912;27;35824;-73
2021/12/21 04:26:42;;;;;;;3.30;2.10;;;;;;;-1.68;62.38;99947.37;5300088;27;34513;-75
2021/12/21 04:29:10;;;;;;;6.35;1.70;;;;;;;-1.53;62.03;99945.56;5299720;27;34511;-74
2021/12/21 04:31:38;;;;;;;2.55;1.37;;;;;;;-1.44;62.11;99950.25;5300277;27;33943;-74
2021/12/21 04:34:06;;;;;;;2.28;1.30;;;;;;;-1.62;61.99;99950.25;5299594;27;35095;-73
2021/12/21 04:36:34;;;;;;;1.58;1.25;;;;;;;-1.58;62.42;99955.56;5299786;27;35281;-70
2021/12/21 04:39:05;;;;;;;1.90;1.77;;;;;;;-1.60;62.24;99948.63;5300023;27;33412;-75
2021/12/21 04:41:34;;;;;;;2.62;1.60;;;;;;;-1.62;62.19;99947.69;5299569;27;33845;-69
2021/12/21 04:44:09;;;;;;;2.47;1.58;;;;;;;-1.91;62.39;99948.03;5300044;27;35058;-72
2021/12/21 04:46:37;;;;;;;1.50;1.23;;;;;;;-1.75;62.40;99953.88;5300174;27;34478;-75
2021/12/21 04:49:05;;;;;;;1.95;1.48;;;;;;;-1.57;62.00;99958.97;5300323;27;33533;-74
2021/12/21 04:51:33;;;;;;;2.10;1.42;;;;;;;-2.06;63.80;99956.63;5300037;27;34574;-70
2021/12/21 04:54:02;;;;;;;1.70;1.50;;;;;;;-1.57;61.78;99959.88;5278674;27;36203;-74
2021/12/21 04:56:30;;;;;;;1.77;1.33;;;;;;;-1.93;62.94;99964.94;5299571;27;35357;-73
2021/12/21 04:58:58;;;;;;;3.10;1.50;;;;;;;-1.79;62.41;99962.19;5300068;27;33484;-72
2021/12/21 05:01:27;;;;;;;2.42;1.73;;;;;;;-1.72;62.24;99960.00;5299377;27;33580;-73
2021/12/21 05:03:55;;;;;;;3.62;1.90;;;;;;;-1.77;62.13;99971.66;5299558;27;34796;-70
2021/12/21 05:06:24;;;;;;;2.03;1.60;;;;;;;-1.89;62.87;99971.06;5298999;27;34364;-68
2021/12/21 05:09:04;;;;;;;2.25;1.50;;;;;;;-1.16;60.45;99977.94;5299695;27;33221;-71
2021/12/21 05:11:35;;;;;;;1.48;1.37;;;;;;;-1.08;59.86;99980.84;5299137;27;33789;-68
2021/12/21 05:14:07;;;;;;;2.40;1.40;;;;;;;-1.78;61.66;99989.47;5299812;27;35383;-68
2021/12/21 05:16:35;;;;;;;3.80;1.60;;;;;;;-1.86;61.96;99991.63;5298776;27;34406;-69
2021/12/21 05:19:04;;;;;;;7.55;1.73;;;;;;;-1.54;60.74;99992.31;5299489;27;34575;-68
2021/12/21 05:21:33;;;;;;;2.45;1.60;;;;;;;-1.83;61.59;99999.47;5299615;27;34811;-68
2021/12/21 05:24:01;;;;;;;3.33;1.77;;;;;;;-1.32;60.69;99999.34;5299559;27;34884;-72
2021/12/21 05:26:30;;;;;;;1.70;1.60;;;;;;;-1.51;60.96;100004.38;5298910;27;34520;-69
2021/12/21 05:28:58;;;;;;;2.90;1.52;;;;;;;-1.97;61.95;100013.22;5299503;27;33463;-69
2021/12/21 05:31:26;;;;;;;2.78;1.42;;;;;;;-1.80;61.44;100008.94;5298758;27;33707;-70
2021/12/21 05:33:54;;;;;;;3.05;1.70;;;;;;;-1.72;61.20;100005.94;5298997;27;35181;-69
2021/12/21 05:36:22;;;;;;;2.15;1.65;;;;;;;-1.94;61.52;100010.78;5299380;27;35283;-68
2021/12/21 05:38:56;;;;;;;3.37;1.62;;;;;;;-1.69;60.20;100002.69;5300239;27;33498;-73
2021/12/21 05:41:28;;;;;;;1.73;1.42;;;;;;;-1.63;59.93;100009.78;5291139;27;34069;-74
2021/12/21 05:43:56;;;;;;;2.92;1.77;;;;;;;-1.42;59.42;100004.81;5300298;27;35139;-68
2021/12/21 05:46:24;;;;;;;2.67;1.95;;;;;;;-1.08;57.84;100007.28;5299943;27;34784;-68
2021/12/21 05:48:55;;;;;;;1.98;1.58;;;;;;;-1.24;58.41;100023.56;5300499;27;33491;-68
2021/12/21 05:51:23;;;;;;;2.25;1.58;;;;;;;-1.44;59.09;100025.19;5290303;27;34108;-72
2021/12/21 05:53:51;;;;;;;3.67;1.90;;;;;;;-1.02;57.93;100033.13;5300419;27;35153;-71
2021/12/21 05:56:18;;;;;;;1.55;1.10;;;;;;;-1.65;59.44;100042.88;5299481;27;34858;-73
2021/12/21 05:58:46;;;;;;;1.77;1.42;;;;;;;-1.25;58.53;100049.03;5300558;27;34008;-68
2021/12/21 06:01:15;;;;;;;2.05;1.62;;;;;;;-1.50;58.75;100046.97;5299483;27;34864;-68
2021/12/21 06:03:43;;;;;;;2.00;1.62;;;;;;;-1.39;58.96;100046.72;5300548;27;35091;-71
2021/12/21 06:06:14;;;;;;;2.30;1.55;;;;;;;-1.48;59.30;100046.28;5299583;27;34437;-72
2021/12/21 06:08:45;;;;;;;2.08;1.85;;;;;;;-1.62;60.29;100052.38;5281874;27;33674;-73
2021/12/21 06:11:14;;;;;;;1.40;1.30;;;;;;;-1.26;59.32;100052.41;5281092;27;34679;-67
2021/12/21 06:14:09;;;;;;;2.30;1.40;;;;;;;-1.91;61.65;100056.91;5300735;27;35157;-72
2021/12/21 06:27:04;;;;;;;1.87;1.50;;;;;;;-1.70;60.39;100080.06;5300938;27;34174;-74
2021/12/21 06:29:33;;;;;;;8.18;2.28;;;;;;;-1.55;60.16;100079.97;5300599;27;34193;-72
2021/12/21 06:32:00;;;;;;;1.58;1.42;;;;;;;-1.78;60.65;100076.28;5299937;27;34912;-67
2021/12/21 08:38:26;;;;;;;4.90;1.87;;;;;;;3.90;49.50;100131.16;5320720;26;20124;-74
2021/12/21 08:41:01;;;;;;;5.57;2.37;;;;;;;4.03;48.77;100137.56;5320558;27;34335;-79
2021/12/21 08:43:31;;;;;;;8.88;3.10;;;;;;;4.62;48.19;100145.19;5322370;27;34718;-79
2021/12/21 08:46:00;;;;;;;6.03;2.42;;;;;;;4.32;47.44;100147.00;5322807;27;34475;-78
2021/12/21 08:48:30;;;;;;;5.47;3.20;;;;;;;6.03;44.21;100142.47;5322426;27;33485;-79
2021/12/21 08:51:00;;;;;;;8.50;3.12;;;;;;;5.73;45.48;100153.00;5322346;27;34028;-79
2021/12/21 08:53:28;;;;;;;7.25;4.97;;;;;;;7.46;41.61;100141.53;5322336;27;35994;-81
2021/12/21 08:55:57;;;;;;;7.35;2.58;;;;;;;6.36;43.88;100144.84;5302903;27;34456;-79
2021/12/21 08:58:25;;;;;;;6.28;2.78;;;;;;;6.83;43.03;100154.34;5320696;27;33410;-79
2021/12/21 09:00:54;;;;;;;10.20;3.28;;;;;;;6.10;44.58;100144.34;5319820;27;33755;-79
2021/12/21 09:03:23;;;;;;;6.00;3.03;;;;;;;6.80;43.28;100151.69;5321570;27;35984;-79
2021/12/21 09:05:52;;;;;;;5.35;2.58;;;;;;;5.54;45.65;100154.28;5321566;27;35130;-80
2021/12/21 09:08:21;;;;;;;6.25;3.28;;;;;;;4.90;47.36;100157.09;5321848;27;33596;-80
2021/12/21 09:10:49;;;;;;;3.00;1.80;;;;;;;5.08;47.95;100161.81;5321931;27;34887;-80
2021/12/21 09:13:18;;;;;;;3.78;2.87;;;;;;;5.25;47.45;100160.53;5320491;27;34970;-80
2021/12/21 09:15:46;;;;;;;5.55;3.17;;;;;;;2.62;54.68;100155.47;5320192;27;35361;-79
2021/12/21 09:18:15;;;;;;;9.43;3.75;;;;;;;3.66;53.01;100157.09;5321720;27;34386;-79
2021/12/21 09:20:43;;;;;;;8.00;3.55;;;;;;;4.77;49.89;100150.75;5321444;27;34894;-79
2021/12/21 09:23:12;;;;;;;6.47;2.90;;;;;;;4.57;50.00;100160.56;5320210;27;35144;-79
2021/12/21 09:25:40;;;;;;;13.70;4.43;;;;;;;4.40;50.34;100148.91;5320636;27;34535;-80
2021/12/21 09:28:09;;;;;;;4.30;3.00;;;;;;;4.51;50.33;100153.50;5319847;27;33926;-80
2021/12/21 09:30:39;;;;;;;6.93;2.95;;;;;;;3.17;53.48;100152.16;5320085;27;34896;-79
2021/12/21 09:33:07;;;;;;;7.68;3.25;;;;;;;2.46;55.74;100148.94;5320468;27;35045;-78
2021/12/21 09:35:35;;;;;;;7.85;3.75;;;;;;;2.95;54.64;100154.88;5302696;27;34460;-80
2021/12/21 09:38:04;;;;;;;8.02;4.03;;;;;;;3.31;54.61;100160.31;5335635;26;34423;-80
2021/12/21 09:40:38;;;;;;;7.47;3.65;;;;;;;3.85;53.34;100151.66;5344090;26;34695;-80
2021/12/21 09:43:09;;;;;;;4.47;2.65;;;;;;;4.11;52.35;100147.28;5343630;26;35064;-80
2021/12/21 09:45:38;;;;;;;6.43;3.12;;;;;;;3.44;53.58;100147.81;5344150;26;34397;-79
2021/12/21 09:48:06;;;;;;;7.57;2.72;;;;;;;3.49;53.99;100144.56;5324470;26;33352;-80
2021/12/21 09:50:36;;;;;;;5.72;2.83;;;;;;;4.83;50.68;100144.84;5324256;26;32212;-79
2021/12/21 09:53:05;;;;;;;6.43;2.65;;;;;;;5.67;48.17;100135.66;5343483;26;35312;-80
2021/12/21 09:55:33;;;;;;;6.55;2.78;;;;;;;6.39;46.26;100132.00;5343928;26;34493;-79
2021/12/21 09:58:02;;;;;;;4.30;2.00;;;;;;;6.84;44.78;100127.59;5343029;26;33408;-79
2021/12/21 10:00:34;;;;;;;4.30;2.45;;;;;;;6.02;46.51;100133.00;5323657;26;33869;-79
2021/12/21 10:03:05;;;;;;;5.70;2.05;;;;;;;6.24;45.77;100129.97;5324090;26;35156;-80
2021/12/21 10:05:37;;;;;;;5.12;2.67;;;;;;;6.84;44.75;100125.00;5323984;26;34585;-79
2021/12/21 10:08:12;;;;;;;7.10;3.40;;;;;;;7.22;43.48;100132.53;5343630;26;34451;-80
2021/12/21 10:10:43;;;;;;;5.95;3.25;;;;;;;7.61;43.82;100121.03;5343969;26;34048;-81
2021/12/21 10:13:23;;;;;;;5.05;2.75;;;;;;;7.45;42.77;100114.75;5343416;26;35155;-79
2021/12/21 10:15:59;;;;;;;4.95;2.42;;;;;;;7.89;41.58;100121.41;5343337;26;35282;-80
2021/12/21 10:18:32;;;;;;;6.50;2.95;;;;;;;9.36;39.16;100119.38;5324484;26;34346;-80
2021/12/21 10:21:05;;;;;;;5.40;2.90;;;;;;;10.08;37.99;100108.47;5323512;26;34116;-79
2021/12/21 10:23:41;;;;;;;4.28;2.70;;;;;;;9.44;38.88;100103.81;5344537;26;35948;-79
2021/12/21 10:26:12;;;;;;;6.03;2.87;;;;;;;9.00;39.10;100109.56;5324886;26;34616;-78
2021/12/21 10:28:45;;;;;;;4.12;2.75;;;;;;;7.67;43.23;100112.47;5345426;26;33552;-80
2021/12/21 10:31:27;;;;;;;4.22;2.42;;;;;;;8.71;41.37;100105.00;5344517;26;34125;-80
2021/12/21 10:33:58;;;;;;;4.03;2.25;;;;;;;9.66;39.11;100103.09;5325603;26;35032;-80
2021/12/21 10:36:29;;;;;;;4.05;2.20;;;;;;;9.76;38.08;100097.91;5344504;26;35318;-79
2021/12/21 10:38:59;;;;;;;3.55;2.33;;;;;;;7.93;40.85;100102.44;5325636;26;33659;-81
2021/12/21 10:41:36;;;;;;;10.77;3.45;;;;;;;8.63;39.56;100101.47;5344491;26;34006;-79
2021/12/21 10:44:08;;;;;;;10.00;2.90;;;;;;;9.73;38.10;100101.41;5344316;26;35837;-80
2021/12/21 10:46:43;;;;;;;4.32;2.60;;;;;;;9.11;39.68;100098.41;5342510;26;33798;-79
2021/12/21 10:49:32;;;;;;;5.47;2.85;;;;;;;10.14;38.62;100092.88;5313581;26;33466;-80
2021/12/21 10:52:05;;;;;;;5.65;3.10;;;;;;;10.10;38.10;100085.94;5336362;26;177529;-80
2021/12/21 10:54:35;;;;;;;7.93;3.03;;;;;;;9.38;39.62;100093.41;5342791;26;34979;-80
2021/12/21 10:57:17;;;;;;;5.30;2.62;;;;;;;11.16;35.94;100083.47;5324759;26;35163;-81
2021/12/21 10:59:48;;;;;;;5.40;2.90;;;;;;;8.48;39.69;100087.47;5344878;26;34554;-80
2021/12/21 11:02:24;;;;;;;3.87;2.47;;;;;;;7.74;42.07;100086.62;5344259;26;34041;-81
2021/12/21 11:04:57;;;;;;;5.80;2.65;;;;;;;7.87;41.69;100092.84;5343011;26;35183;-79
2021/12/21 11:10:17;;;;;;;8.07;2.85;;;;;;;6.47;44.14;100090.72;5344729;26;33690;-81
2021/12/21 11:13:10;;;;;;;7.32;2.78;;;;;;;5.58;45.90;100086.38;5327988;26;34016;-80
2021/12/21 11:15:43;;;;;;;7.12;3.08;;;;;;;5.31;46.25;100083.22;5344928;26;35047;-81
2021/12/21 11:18:13;;;;;;;8.85;2.80;;;;;;;4.72;47.84;100083.53;5324467;26;32976;-81
2021/12/21 11:20:45;;;;;;;9.23;3.97;;;;;;;5.02;48.61;100073.94;5324543;26;32725;-78
2021/12/21 11:23:14;;;;;;;4.55;2.33;;;;;;;4.23;48.84;100076.25;5306641;26;33970;-81
2021/12/21 11:25:46;;;;;;;4.18;2.33;;;;;;;4.45;49.45;100069.97;5325202;26;35885;-79
2021/12/21 11:28:17;;;;;;;7.93;2.87;;;;;;;5.75;47.42;100064.31;5344578;26;34492;-81
2021/12/21 11:30:45;;;;;;;5.75;2.92;;;;;;;6.38;45.11;100059.53;5344822;26;34296;-81
2021/12/21 11:33:17;;;;;;;3.83;2.15;;;;;;;7.08;43.88;100056.38;5343851;26;34870;-83
2021/12/21 11:38:33;;;;;;;3.70;2.40;;;;;;;8.47;40.72;100049.44;5344341;26;34478;-81
2021/12/21 11:41:03;;;;;;;6.57;2.72;;;;;;;7.56;40.98;100057.87;5342707;26;34325;-82
2021/12/21 11:43:37;;;;;;;8.25;3.00;;;;;;;8.07;41.12;100053.31;5325024;26;35894;-82
2021/12/21 11:46:09;;;;;;;4.57;2.60;;;;;;;8.28;40.82;100057.84;5324661;26;35201;-82
2021/12/21 11:48:42;;;;;;;4.45;2.75;;;;;;;8.41;40.23;100056.25;5343398;26;35292;-80
2021/12/21 11:51:12;;;;;;;6.10;3.12;;;;;;;8.40;39.88;100047.59;5306288;26;33015;-78
2021/12/21 11:53:41;;;;;;;8.10;3.12;;;;;;;8.65;39.52;100047.84;5323456;26;34071;-80
2021/12/21 11:56:16;;;;;;;8.35;2.60;;;;;;;8.58;38.79;100044.31;5322712;26;36119;-79
2021/12/21 11:58:44;;;;;;;5.40;2.73;;;;;;;7.85;40.83;100047.00;5344856;26;34459;-80
2021/12/21 12:01:19;;;;;;;5.78;2.83;;;;;;;7.63;41.18;100046.75;5344090;26;33407;-80
2021/12/21 12:03:59;;;;;;;8.27;2.92;;;;;;;7.39;41.73;100036.91;5344330;26;34505;-80
2021/12/21 12:06:41;;;;;;;4.62;2.47;;;;;;;6.19;44.29;100041.06;5324543;26;35153;-80
2021/12/21 12:09:09;;;;;;;5.32;2.30;;;;;;;6.46;44.29;100042.44;5344574;26;34657;-80
2021/12/21 12:11:40;;;;;;;5.95;3.42;;;;;;;6.68;42.97;100040.19;5323920;26;34442;-80
2021/12/21 12:14:09;;;;;;;5.70;2.97;;;;;;;6.92;43.48;100034.50;5343047;26;34070;-80
2021/12/21 12:16:45;;;;;;;6.62;2.72;;;;;;;7.39;43.15;100037.81;5344179;26;35885;-80
2021/12/21 12:19:15;;;;;;;5.37;3.03;;;;;;;6.33;44.34;100041.31;5344772;26;35233;-80
2021/12/21 12:21:59;;;;;;;5.15;2.75;;;;;;;5.67;45.79;100045.22;5324667;26;33467;-80
2021/12/21 12:24:34;;;;;;;4.05;2.50;;;;;;;5.85;46.34;100040.41;5342705;26;33349;-79
2021/12/21 12:27:08;;;;;;;9.65;3.47;;;;;;;5.34;46.39;100048.81;5324551;26;36030;-80
2021/12/21 12:29:50;;;;;;;5.45;3.05;;;;;;;6.12;45.39;100044.37;5344262;26;34571;-79
2021/12/21 12:32:32;;;;;;;8.98;2.90;;;;;;;5.97;45.61;100044.13;5344177;26;33518;-79
2021/12/21 12:35:04;;;;;;;4.93;2.70;;;;;;;5.56;45.90;100044.13;5344660;26;34685;-80
2021/12/21 12:37:33;;;;;;;4.15;2.22;;;;;;;5.48;46.19;100042.25;5343722;26;35239;-80
2021/12/21 12:40:07;;;;;;;3.40;2.12;;;;;;;5.39;46.64;100036.87;5324588;26;34187;-80
2021/12/21 12:42:36;;;;;;;4.00;2.15;;;;;;;4.88;46.93;100040.06;5343893;26;33668;-80
2021/12/21 12:45:14;;;;;;;7.97;2.87;;;;;;;5.40;45.70;100033.47;5343869;26;34872;-80
2021/12/21 12:47:46;;;;;;;5.47;2.17;;;;;;;6.03;43.32;100037.34;5324296;26;35187;-80
2021/12/21 12:50:17;;;;;;;5.32;2.60;;;;;;;5.54;45.49;100040.63;5344612;26;34564;-79
2021/12/21 12:52:56;;;;;;;4.30;2.30;;;;;;;5.42;45.35;100039.53;5342505;26;33518;-80
2021/12/21 12:55:35;;;;;;;4.43;2.62;;;;;;;5.75;44.37;100045.38;5344631;26;34944;-83
2021/12/21 12:58:25;;;;;;;6.50;2.97;;;;;;;4.97;46.47;100041.97;5327582;26;35839;-80
2021/12/21 13:01:19;;;;;;;4.07;2.17;;;;;;;4.94;46.82;100040.19;5344539;26;33801;-80
2021/12/21 13:03:47;;;;;;;6.75;2.40;;;;;;;3.47;48.55;100048.38;5324228;26;31939;-80
2021/12/21 13:06:22;;;;;;;5.62;2.65;;;;;;;3.94;47.82;100048.84;5344434;26;34013;-79
2021/12/21 13:08:51;;;;;;;5.00;2.53;;;;;;;3.68;48.62;100047.25;5324722;26;34567;-80
2021/12/21 13:11:25;;;;;;;8.93;3.15;;;;;;;2.56;52.29;100047.25;5344483;26;35136;-80
2021/12/21 13:13:57;;;;;;;5.57;2.45;;;;;;;2.68;53.10;100046.81;5306984;26;32872;-79
2021/12/21 13:16:27;;;;;;;7.65;3.05;;;;;;;2.91;52.97;100050.09;5287842;26;32528;-80
2021/12/21 13:18:58;;;;;;;6.95;2.78;;;;;;;3.13;52.43;100052.53;5342700;26;35249;-80
2021/12/21 13:21:32;;;;;;;4.05;2.33;;;;;;;2.76;54.02;100055.66;5324749;26;34581;-80
2021/12/21 13:24:09;;;;;;;5.15;2.75;;;;;;;2.68;54.09;100049.38;5325053;26;33637;-80
2021/12/21 13:26:58;;;;;;;6.12;2.83;;;;;;;3.01;53.67;100049.56;5344116;26;34068;-79
2021/12/21 13:29:35;;;;;;;4.03;2.20;;;;;;;2.95;54.10;100049.41;5324690;26;34710;-80
2021/12/21 13:32:11;;;;;;;4.90;2.90;;;;;;;2.68;53.03;100050.25;5343667;26;34489;-80
2021/12/21 13:34:41;;;;;;;12.02;3.08;;;;;;;2.53;52.54;100057.47;5342882;26;33820;-80
2021/12/21 13:37:13;;;;;;;9.73;3.55;;;;;;;3.28;51.36;100048.66;5343923;26;34673;-79
2021/12/21 13:39:46;;;;;;;10.60;2.87;;;;;;;3.08;51.69;100046.38;5343663;26;35090;-80
2021/12/21 13:42:20;;;;;;;8.10;2.80;;;;;;;2.57;52.91;100051.59;5322387;26;34512;-81
2021/12/21 13:44:55;;;;;;;8.52;3.50;;;;;;;3.28;52.14;100044.37;5344059;26;34297;-77
2021/12/21 13:47:25;;;;;;;8.18;2.58;;;;;;;3.27;51.52;100052.09;5343542;26;34052;-79
2021/12/21 13:49:59;;;;;;;8.80;2.75;;;;;;;3.21;52.81;100047.59;5323679;26;35134;-80
2021/12/21 13:52:33;;;;;;;7.32;2.65;;;;;;;2.96;52.42;100045.97;5343323;26;34495;-79
2021/12/21 13:55:04;;;;;;;4.57;2.55;;;;;;;2.73;53.51;100051.25;5343973;26;34455;-79
2021/12/21 13:57:33;;;;;;;7.32;3.90;;;;;;;2.46;54.42;100040.97;5344014;26;34023;-79
2021/12/21 14:00:07;;;;;;;9.15;3.30;;;;;;;2.55;53.78;100045.53;5343346;26;35944;-81
2021/12/21 14:02:38;;;;;;;4.55;2.00;;;;;;;2.36;55.49;100039.78;5323433;26;33875;-81
2021/12/21 14:05:08;;;;;;;9.70;3.22;;;;;;;2.06;56.36;100045.59;5343697;26;34313;-81
2021/12/21 14:07:39;;;;;;;12.60;3.75;;;;;;;2.65;54.43;100038.16;5344185;26;33209;-84
2021/12/21 14:10:15;;;;;;;4.90;2.20;;;;;;;2.55;54.53;100038.69;5345097;26;35183;-84
2021/12/21 14:12:55;;;;;;;4.62;2.67;;;;;;;2.45;55.14;100040.09;5344514;26;35093;-84
2021/12/21 14:15:37;;;;;;;7.78;3.37;;;;;;;2.05;56.80;100043.87;5325395;26;33469;-84
2021/12/21 14:18:21;;;;;;;11.90;2.78;;;;;;;1.86;57.08;100051.75;5325052;26;33805;-84
2021/12/21 14:21:06;;;;;;;7.43;3.37;;;;;;;1.96;57.29;100051.28;5344918;26;35154;-85
2021/12/21 14:23:35;;;;;;;5.40;2.35;;;;;;;2.21;56.96;100054.69;5324825;26;34505;-85
2021/12/21 14:26:19;;;;;;;5.10;2.83;;;;;;;2.33;56.35;100052.53;5344526;26;33525;-84
2021/12/21 14:29:06;;;;;;;11.18;3.90;;;;;;;1.77;57.59;100048.88;5344598;26;34828;-84
2021/12/21 14:31:42;;;;;;;5.25;2.55;;;;;;;1.74;57.73;100049.63;5343531;26;35034;-85
2021/12/21 14:34:13;;;;;;;4.95;2.45;;;;;;;1.65;58.17;100052.72;5344244;26;35231;-85
2021/12/21 14:36:41;;;;;;;4.50;2.50;;;;;;;1.27;59.61;100058.97;5325588;26;33395;-84
2021/12/21 14:39:14;;;;;;;5.30;2.85;;;;;;;2.23;56.42;100053.03;5343147;26;33980;-86
2021/12/21 14:41:52;;;;;;;14.68;3.03;;;;;;;2.06;56.93;100048.19;5345111;26;34954;-85
2021/12/21 14:44:22;;;;;;;7.97;3.08;;;;;;;2.13;56.91;100059.53;5343806;26;35128;-84
2021/12/21 14:47:11;;;;;;;4.60;2.33;;;;;;;1.56;58.88;100056.66;5345359;26;32739;-85
2021/12/21 14:49:46;;;;;;;4.95;3.00;;;;;;;1.47;58.85;100058.06;5325356;26;34734;-84
2021/12/21 14:52:20;;;;;;;4.12;2.70;;;;;;;2.04;57.25;100057.53;5343237;26;34960;-85